GORO2: Illinois River, Gore, OK

Data processed at Sun Jan 14 2018 23:34


All information presented herein is the property of the government of the United States of America and may be revised or deleted at any time without prior notice.
Dissemination of this information without the expressed written consent of the Public Affairs Office, Tulsa District U.S. Army Corps of Engineers is strictly prohibited.
These data are gathered electronically and, as presented, have not undergone any form of quality control. These data are not guaranteed to be valid or correct.
Go to home page.
Go to station list.

Upstream stations:

Downstream station:
Previous Day
Next Day
Current Day
    
SHEF ID:       GORO2     Illinois River near Gore, OK
STATION TYPE:  

               PRECIP PRECIP(A)     STAGE  STAGE(2)  RIV-FLOW  WTR-TEMP   DIS-OXY   VOLTAGE  BAT-LOAD
                   in        in        ft        ft       cfs         F      mg/l      volt      volt
              Ccp-Rev   Ccp-Rev   Ccp-Rev   Ccp-Rev   Ccp-Rev   Ccp-Rev   Ccp-Rev   Ccp-Rev   Ccp-Rev
(US/Central)
01/12 00:00      0.00      ----      6.71      8.08        34     44.69      9.89      ----     12.60
01/12 01:00      0.00      ----      6.71      8.08        34     44.31      9.73      ----     12.60
01/12 02:00      0.00      ----      6.71      8.08        34     43.77      9.81      ----     12.60
01/12 03:00      0.00      ----      6.71      8.08        34     43.25      9.88      ----     12.60
01/12 04:00      0.00      ----      6.71      8.08        34     42.64      9.78      ----     12.60
01/12 05:00      0.00      ----      6.71      8.08        34     42.22      9.62      ----     12.54
01/12 06:00      0.00      ----      6.71      8.08        34     41.72      9.68      ----     12.54
01/12 07:00      0.00      ----     10.22      8.09      2191     42.22     11.39      ----      ----
01/12 08:00      0.00      ----     11.58      8.09      3914     46.04     11.30      ----      ----
01/12 09:00      0.00      ----     11.72      8.09      4118     46.49     11.35      ----      ----
01/12 10:00      0.00      ----     11.74      8.09      4148     46.74     11.44      ----      ----
01/12 11:00      0.00      ----     11.76      8.09      4178     46.99     11.54      ----      ----
01/12 12:00      0.00      ----      9.85      8.09      1798     46.90     11.63      ----      ----
01/12 13:00      0.00      ----      7.97      8.08       380     47.32     11.93      ----      ----
01/12 14:00      0.00      ----      7.37      8.08       161     47.80     12.21      ----      ----
01/12 15:00      0.00      ----      7.10      8.08        95     47.55     12.53      ----      ----
01/12 16:00      0.00      ----      6.97      8.08        69     47.19     12.78      ----      ----
01/12 17:00      0.00      ----     10.60      8.09      2617     46.92     12.76      ----      ----
01/12 18:00      0.00      ----     11.61      8.09      3957     46.80     11.52      ----      ----
01/12 19:00      0.00      ----     11.73      8.09      4133     46.72     11.42      ----      ----
01/12 20:00      0.00      ----     11.76      8.09      4178     46.69     11.40      ----      ----
01/12 21:00      0.00      ----     11.77      8.09      4193     46.65     11.40      ----      ----
01/12 22:00      0.00      ----      9.86      8.09      1809     46.33     11.45      ----      ----
01/12 23:00      0.00      ----      7.98      8.08       384     45.95     11.38      ----      ----